createdAt,value
2024-04-01T00:00:13.027Z,10.18
2024-04-01T00:01:03.779Z,10.18
2024-04-01T00:01:54.980Z,10.18
2024-04-01T00:02:46.101Z,10.18
2024-04-01T00:03:37.422Z,10.17
2024-04-01T00:04:28.272Z,10.17
2024-04-01T00:05:19.183Z,10.15
2024-04-01T00:06:09.973Z,10.14
2024-04-01T00:07:01.210Z,10.14
2024-04-01T00:07:52.377Z,10.12
2024-04-01T00:08:43.395Z,10.10
2024-04-01T00:09:34.369Z,10.09
2024-04-01T00:10:25.487Z,10.09
2024-04-01T00:11:16.445Z,10.07
2024-04-01T00:12:07.626Z,10.06
2024-04-01T00:12:58.614Z,10.07
2024-04-01T00:13:49.374Z,10.04
2024-04-01T00:14:40.291Z,10.06
2024-04-01T00:15:31.545Z,10.04
2024-04-01T00:16:22.412Z,10.04
2024-04-01T00:17:13.345Z,10.04
2024-04-01T00:18:04.538Z,10.01
2024-04-01T00:18:55.745Z,10.01
2024-04-01T00:19:46.889Z,10.01
2024-04-01T00:20:37.915Z,10.00
2024-04-01T00:21:28.565Z,9.99
2024-04-01T00:22:19.780Z,9.96
2024-04-01T00:23:10.758Z,9.94
2024-04-01T00:24:01.827Z,9.91
2024-04-01T00:24:52.894Z,9.89
2024-04-01T00:25:44.021Z,9.86
2024-04-01T00:26:35.170Z,9.83
2024-04-01T00:27:26.252Z,9.83
2024-04-01T00:28:17.379Z,9.85
2024-04-01T00:29:08.404Z,9.82
2024-04-01T00:29:59.482Z,9.79
2024-04-01T00:30:50.633Z,9.81
2024-04-01T00:31:41.583Z,9.81
2024-04-01T00:32:32.711Z,9.81
2024-04-01T00:33:23.645Z,9.78
2024-04-01T00:34:14.803Z,9.79
2024-04-01T00:35:05.799Z,9.79
2024-04-01T00:35:56.768Z,9.78
2024-04-01T00:36:47.608Z,9.76
2024-04-01T00:37:38.306Z,9.75
2024-04-01T00:38:29.085Z,9.73
2024-04-01T00:39:19.888Z,9.75
2024-04-01T00:40:10.989Z,9.70
2024-04-01T00:41:01.907Z,9.70
2024-04-01T00:41:53.025Z,9.68
2024-04-01T00:42:44.283Z,9.68
2024-04-01T00:43:35.465Z,9.68
2024-04-01T00:44:26.588Z,9.66
2024-04-01T00:45:17.325Z,9.66
2024-04-01T00:46:08.527Z,9.63
2024-04-01T00:46:59.700Z,9.61
2024-04-01T00:47:50.826Z,9.63
2024-04-01T00:48:41.716Z,9.60
2024-04-01T00:49:32.996Z,9.60
2024-04-01T00:50:23.889Z,9.57
2024-04-01T00:51:14.939Z,9.57
2024-04-01T00:52:06.011Z,9.57
2024-04-01T00:52:57.302Z,9.53
2024-04-01T00:53:48.006Z,9.56
2024-04-01T00:54:39.134Z,9.57
2024-04-01T00:55:30.367Z,9.56
2024-04-01T00:56:21.596Z,9.56
2024-04-01T00:57:12.729Z,9.56
2024-04-01T00:58:03.906Z,9.53
2024-04-01T00:58:55.197Z,9.56
2024-04-01T00:59:46.457Z,9.57
2024-04-01T01:00:37.628Z,9.56
2024-04-01T01:01:28.907Z,9.57
2024-04-01T01:02:20.016Z,9.57
2024-04-01T01:03:11.217Z,9.60
2024-04-01T01:04:02.485Z,9.60
2024-04-01T01:04:53.595Z,9.61
2024-04-01T01:05:44.675Z,9.60
2024-04-01T01:06:35.805Z,9.58
2024-04-01T01:07:27.004Z,9.56
2024-04-01T01:08:18.241Z,9.53
2024-04-01T01:09:08.923Z,9.49
2024-04-01T01:10:00.053Z,9.45
2024-04-01T01:10:51.807Z,9.40
2024-04-01T01:11:41.717Z,9.38
2024-04-01T01:12:33.017Z,9.31
2024-04-01T01:13:23.726Z,9.28
2024-04-01T01:14:14.414Z,9.28
2024-04-01T01:15:05.666Z,9.27
2024-04-01T01:15:56.352Z,9.27
2024-04-01T01:16:47.592Z,9.27
2024-04-01T01:17:38.308Z,9.25
2024-04-01T01:18:29.072Z,9.25
2024-04-01T01:19:19.821Z,9.24
2024-04-01T01:20:10.554Z,9.25
2024-04-01T01:21:01.292Z,9.23
2024-04-01T01:21:51.958Z,9.24
2024-04-01T01:22:42.687Z,9.23
2024-04-01T01:23:33.707Z,9.25
2024-04-01T01:24:24.992Z,9.25
2024-04-01T01:25:15.688Z,9.27
2024-04-01T01:26:06.401Z,9.27
2024-04-01T01:26:57.096Z,9.27
2024-04-01T01:27:48.327Z,9.27
2024-04-01T01:28:39.114Z,9.27
2024-04-01T01:29:29.848Z,9.25
2024-04-01T01:30:21.143Z,9.25
2024-04-01T01:31:11.835Z,9.24
2024-04-01T01:32:02.522Z,9.23
2024-04-01T01:32:53.841Z,9.23
2024-04-01T01:33:44.525Z,9.20
2024-04-01T01:34:35.562Z,9.20
2024-04-01T01:35:26.333Z,9.18
2024-04-01T01:36:17.135Z,9.16
2024-04-01T01:37:07.924Z,9.18
2024-04-01T01:37:58.681Z,9.18
2024-04-01T01:38:49.406Z,9.15
2024-04-01T01:39:40.204Z,9.16
2024-04-01T01:40:30.996Z,9.15
2024-04-01T01:41:21.742Z,9.16
2024-04-01T01:42:12.427Z,9.16
2024-04-01T01:43:03.222Z,9.15
2024-04-01T01:43:53.896Z,9.18
2024-04-01T01:44:44.603Z,9.16
2024-04-01T01:45:35.337Z,9.18
2024-04-01T01:46:26.659Z,9.18
2024-04-01T01:47:17.756Z,9.18
2024-04-01T01:48:08.500Z,9.21
2024-04-01T01:48:59.246Z,9.21
2024-04-01T01:49:49.957Z,9.21
2024-04-01T01:50:40.661Z,9.23
2024-04-01T01:51:31.440Z,9.24
2024-04-01T01:52:22.214Z,9.24
2024-04-01T01:53:12.990Z,9.25
2024-04-01T01:54:03.774Z,9.25
2024-04-01T01:54:54.585Z,9.27
2024-04-01T01:55:45.340Z,9.25
2024-04-01T01:56:36.122Z,9.25
2024-04-01T01:57:26.920Z,9.24
2024-04-01T01:58:17.711Z,9.24
2024-04-01T01:59:08.391Z,9.27
2024-04-01T01:59:59.131Z,9.24
2024-04-01T02:00:49.918Z,9.23
2024-04-01T02:01:40.709Z,9.24
2024-04-01T02:02:31.497Z,9.23
2024-04-01T02:03:22.290Z,9.21
2024-04-01T02:04:13.095Z,9.23
2024-04-01T02:05:03.910Z,9.21
2024-04-01T02:05:54.631Z,9.21
2024-04-01T02:06:45.422Z,9.20
2024-04-01T02:07:36.221Z,9.16
2024-04-01T02:08:27.018Z,9.13
2024-04-01T02:09:17.806Z,9.12
2024-04-01T02:10:08.595Z,9.10
2024-04-01T02:10:59.386Z,9.10
2024-04-01T02:11:50.181Z,9.06
2024-04-01T02:12:41.002Z,9.05
2024-04-01T02:13:31.777Z,9.02
2024-04-01T02:14:22.580Z,9.04
2024-04-01T02:15:13.377Z,9.01
2024-04-01T02:16:04.176Z,9.02
2024-04-01T02:16:54.960Z,9.01
2024-04-01T02:17:45.744Z,9.01
2024-04-01T02:18:36.539Z,8.99
2024-04-01T02:19:27.334Z,8.97
2024-04-01T02:20:18.137Z,8.97
2024-04-01T02:21:08.914Z,8.97
2024-04-01T02:21:59.712Z,8.97
2024-04-01T02:22:50.523Z,8.96
2024-04-01T02:23:41.302Z,8.97
2024-04-01T02:24:32.089Z,8.97
2024-04-01T02:25:22.892Z,8.97
2024-04-01T02:26:13.679Z,8.99
2024-04-01T02:27:04.474Z,8.97
2024-04-01T02:27:55.213Z,8.99
2024-04-01T02:28:46.002Z,9.01
2024-04-01T02:29:36.798Z,9.01
2024-04-01T02:30:27.600Z,9.01
2024-04-01T02:31:18.326Z,9.04
2024-04-01T02:32:09.135Z,9.04
2024-04-01T02:32:59.859Z,9.04
2024-04-01T02:33:50.592Z,9.05
2024-04-01T02:34:41.398Z,9.06
2024-04-01T02:35:32.202Z,9.09
2024-04-01T02:36:22.903Z,9.09
2024-04-01T02:37:13.691Z,9.06
2024-04-01T02:38:04.480Z,9.09
2024-04-01T02:38:55.268Z,9.09
2024-04-01T02:39:46.100Z,9.10
2024-04-01T02:40:36.874Z,9.09
2024-04-01T02:41:27.562Z,9.12
2024-04-01T02:42:18.321Z,9.10
2024-04-01T02:43:09.103Z,9.12
2024-04-01T02:43:59.888Z,9.12
2024-04-01T02:44:50.697Z,9.10
2024-04-01T02:45:41.484Z,9.12
2024-04-01T02:46:32.271Z,9.12
2024-04-01T02:47:23.110Z,9.10
2024-04-01T02:48:13.870Z,9.12
2024-04-01T02:49:04.601Z,9.09
2024-04-01T02:49:55.374Z,9.10
2024-04-01T02:50:46.175Z,9.10
2024-04-01T02:51:36.956Z,9.09
2024-04-01T02:52:27.783Z,9.09
2024-04-01T02:53:18.535Z,9.09
2024-04-01T02:54:09.330Z,9.06
2024-04-01T02:55:00.127Z,9.06
2024-04-01T02:55:50.929Z,9.05
2024-04-01T02:56:41.717Z,9.05
2024-04-01T02:57:32.505Z,9.04
2024-04-01T02:58:23.309Z,9.02
2024-04-01T02:59:14.101Z,9.02
2024-04-01T03:00:04.889Z,9.01
2024-04-01T03:00:55.680Z,8.99
2024-04-01T03:01:46.479Z,9.01
2024-04-01T03:02:37.276Z,9.01
2024-04-01T03:03:28.062Z,9.02
2024-04-01T03:04:18.864Z,9.01
2024-04-01T03:05:09.674Z,8.97
2024-04-01T03:06:00.483Z,8.97
2024-04-01T03:06:51.257Z,8.96
2024-04-01T03:07:42.042Z,8.97
2024-04-01T03:08:32.838Z,8.97
2024-04-01T03:09:23.627Z,8.97
2024-04-01T03:10:14.434Z,8.96
2024-04-01T03:11:05.232Z,8.96
2024-04-01T03:11:56.027Z,8.96
2024-04-01T03:12:46.827Z,8.93
2024-04-01T03:13:37.624Z,8.94
2024-04-01T03:14:28.406Z,8.93
2024-04-01T03:15:19.212Z,8.93
2024-04-01T03:16:10.006Z,8.91
2024-04-01T03:17:00.782Z,8.93
2024-04-01T03:17:51.591Z,8.91
2024-04-01T03:18:42.380Z,8.94
2024-04-01T03:19:33.165Z,8.94
2024-04-01T03:20:23.974Z,8.94
2024-04-01T03:21:14.771Z,8.94
2024-04-01T03:22:05.547Z,8.94
2024-04-01T03:22:56.349Z,8.96
2024-04-01T03:23:47.136Z,8.93
2024-04-01T03:24:37.947Z,8.94
2024-04-01T03:25:28.923Z,8.94
2024-04-01T03:26:19.707Z,8.94
2024-04-01T03:27:10.489Z,8.97
2024-04-01T03:28:01.296Z,8.96
2024-04-01T03:28:52.085Z,8.96
2024-04-01T03:29:42.876Z,8.96
2024-04-01T03:30:33.689Z,8.97
2024-04-01T03:31:24.506Z,8.99
2024-04-01T03:32:15.268Z,8.96
2024-04-01T03:33:06.059Z,8.96
2024-04-01T03:33:56.848Z,8.97
2024-04-01T03:34:47.658Z,8.97
2024-04-01T03:35:38.453Z,8.97
2024-04-01T03:36:30.669Z,8.97
2024-04-01T03:37:20.268Z,8.97
2024-04-01T03:38:11.049Z,8.99
2024-04-01T03:39:01.848Z,8.99
2024-04-01T03:39:52.648Z,8.97
2024-04-01T03:40:43.431Z,9.01
2024-04-01T03:41:34.978Z,8.97
2024-04-01T03:42:25.322Z,8.97
2024-04-01T03:43:16.110Z,8.99
2024-04-01T03:44:06.899Z,8.99
2024-04-01T03:44:57.695Z,8.97
2024-04-01T03:45:48.489Z,8.97
2024-04-01T03:46:39.274Z,8.97
2024-04-01T03:47:30.011Z,8.96
2024-04-01T03:48:20.814Z,8.96
2024-04-01T03:49:11.550Z,8.96
2024-04-01T03:50:02.348Z,8.94
2024-04-01T03:50:53.090Z,8.94
2024-04-01T03:51:43.779Z,8.94
2024-04-01T03:52:34.550Z,8.94
2024-04-01T03:53:25.238Z,8.91
2024-04-01T03:54:16.419Z,8.90
2024-04-01T03:55:07.595Z,8.90
2024-04-01T03:55:58.726Z,8.87
2024-04-01T03:56:50.016Z,8.86
2024-04-01T03:57:41.317Z,8.84
2024-04-01T03:58:32.240Z,8.86
2024-04-01T03:59:22.983Z,8.81
2024-04-01T04:00:14.119Z,8.83
2024-04-01T04:01:04.791Z,8.84
2024-04-01T04:01:55.934Z,8.83
2024-04-01T04:02:46.945Z,8.83
2024-04-01T04:03:37.656Z,8.81
2024-04-01T04:04:28.487Z,8.83
2024-04-01T04:05:19.143Z,8.81
2024-04-01T04:06:10.165Z,8.83
2024-04-01T04:07:01.439Z,8.84
2024-04-01T04:07:52.540Z,8.83
2024-04-01T04:08:43.289Z,8.83
2024-04-01T04:09:34.063Z,8.84
2024-04-01T04:10:24.843Z,8.83
2024-04-01T04:11:15.637Z,8.81
2024-04-01T04:12:06.393Z,8.83
2024-04-01T04:12:57.182Z,8.79
2024-04-01T04:13:47.944Z,8.79
2024-04-01T04:14:38.715Z,8.79
2024-04-01T04:15:29.499Z,8.76
2024-04-01T04:16:20.276Z,8.75
2024-04-01T04:17:11.051Z,8.72
2024-04-01T04:18:02.116Z,8.72
2024-04-01T04:18:52.979Z,8.72
2024-04-01T04:19:43.749Z,8.72
2024-04-01T04:20:34.528Z,8.72
2024-04-01T04:21:25.597Z,8.72
2024-04-01T04:22:16.602Z,8.69
2024-04-01T04:23:07.413Z,8.69
2024-04-01T04:23:58.297Z,8.69
2024-04-01T04:24:49.176Z,8.69
2024-04-01T04:25:40.375Z,8.69
2024-04-01T04:26:31.180Z,8.69
2024-04-01T04:27:21.972Z,8.69
2024-04-01T04:28:12.618Z,8.68
2024-04-01T04:29:03.425Z,8.69
2024-04-01T04:29:54.092Z,8.69
2024-04-01T04:30:44.965Z,8.71
2024-04-01T04:31:36.298Z,8.68
2024-04-01T04:32:26.892Z,8.68
2024-04-01T04:33:17.744Z,8.68
2024-04-01T04:34:08.618Z,8.68
2024-04-01T04:34:59.506Z,8.66
2024-04-01T04:35:50.388Z,8.66
2024-04-01T04:36:41.253Z,8.66
2024-04-01T04:37:32.147Z,8.66
2024-04-01T04:38:23.006Z,8.65
2024-04-01T04:39:13.886Z,8.63
2024-04-01T04:40:04.784Z,8.66
2024-04-01T04:40:55.652Z,8.63
2024-04-01T04:41:46.531Z,8.63
2024-04-01T04:42:37.412Z,8.63
2024-04-01T04:43:28.302Z,8.65
2024-04-01T04:44:19.154Z,8.62
2024-04-01T04:45:10.165Z,8.63
2024-04-01T04:46:01.042Z,8.60
2024-04-01T04:46:51.925Z,8.63
2024-04-01T04:47:42.801Z,8.60
2024-04-01T04:48:33.679Z,8.58
2024-04-01T04:49:24.567Z,8.60
2024-04-01T04:50:15.474Z,8.57
2024-04-01T04:51:06.359Z,8.57
2024-04-01T04:51:57.251Z,8.55
2024-04-01T04:52:48.160Z,8.57
2024-04-01T04:53:39.033Z,8.58
2024-04-01T04:54:29.928Z,8.58
2024-04-01T04:55:20.817Z,8.58
2024-04-01T04:56:11.716Z,8.60
2024-04-01T04:57:02.596Z,8.62
2024-04-01T04:57:53.492Z,8.60
2024-04-01T04:58:44.384Z,8.60
2024-04-01T04:59:35.286Z,8.62
2024-04-01T05:00:26.178Z,8.63
2024-04-01T05:01:17.065Z,8.62
2024-04-01T05:02:07.956Z,8.63
2024-04-01T05:02:58.857Z,8.63
2024-04-01T05:03:49.748Z,8.62
2024-04-01T05:04:40.638Z,8.62
2024-04-01T05:05:31.536Z,8.62
2024-04-01T05:06:22.424Z,8.62
2024-04-01T05:07:13.312Z,8.63
2024-04-01T05:08:04.203Z,8.63
2024-04-01T05:08:55.084Z,8.63
2024-04-01T05:09:45.973Z,8.62
2024-04-01T05:10:36.874Z,8.62
2024-04-01T05:11:27.779Z,8.62
2024-04-01T05:12:18.673Z,8.62
2024-04-01T05:13:09.556Z,8.62
2024-04-01T05:14:00.441Z,8.62
2024-04-01T05:14:51.327Z,8.60
2024-04-01T05:15:42.215Z,8.58
2024-04-01T05:16:33.129Z,8.57
2024-04-01T05:17:24.022Z,8.55
2024-04-01T05:18:14.893Z,8.54
2024-04-01T05:19:05.782Z,8.53
2024-04-01T05:19:56.686Z,8.48
2024-04-01T05:20:47.568Z,8.48
2024-04-01T05:21:38.465Z,8.45
2024-04-01T05:22:29.365Z,8.45
2024-04-01T05:23:20.257Z,8.44
2024-04-01T05:24:11.143Z,8.44
2024-04-01T05:25:02.039Z,8.44
2024-04-01T05:25:52.927Z,8.42
2024-04-01T05:26:43.819Z,8.44
2024-04-01T05:27:34.717Z,8.44
2024-04-01T05:28:25.622Z,8.45
2024-04-01T05:29:16.526Z,8.40
2024-04-01T05:30:07.417Z,8.39
2024-04-01T05:30:58.355Z,8.42
2024-04-01T05:31:49.196Z,8.39
2024-04-01T05:32:40.115Z,8.40
2024-04-01T05:33:30.990Z,8.42
2024-04-01T05:34:21.895Z,8.44
2024-04-01T05:35:12.778Z,8.42
2024-04-01T05:36:03.668Z,8.45
2024-04-01T05:36:54.561Z,8.44
2024-04-01T05:37:45.454Z,8.44
2024-04-01T05:38:36.357Z,8.45
2024-04-01T05:39:27.246Z,8.45
2024-04-01T05:40:18.146Z,8.47
2024-04-01T05:41:09.045Z,8.47
2024-04-01T05:41:59.957Z,8.47
2024-04-01T05:42:50.867Z,8.50
2024-04-01T05:43:41.775Z,8.53
2024-04-01T05:44:32.684Z,8.51
2024-04-01T05:45:23.594Z,8.54
2024-04-01T05:46:14.496Z,8.54
2024-04-01T05:47:05.412Z,8.55
2024-04-01T05:47:56.310Z,8.55
2024-04-01T05:48:47.222Z,8.55
2024-04-01T05:49:38.132Z,8.54
2024-04-01T05:50:29.058Z,8.54
2024-04-01T05:51:19.961Z,8.53
2024-04-01T05:52:10.886Z,8.53
2024-04-01T05:53:01.797Z,8.51
2024-04-01T05:53:52.725Z,8.54
2024-04-01T05:54:43.663Z,8.53
2024-04-01T05:55:34.576Z,8.53
2024-04-01T05:56:25.488Z,8.55
2024-04-01T05:57:16.406Z,8.54
2024-04-01T05:58:07.324Z,8.57
2024-04-01T05:58:58.274Z,8.57
2024-04-01T05:59:49.333Z,8.60
2024-04-01T06:00:40.197Z,8.62
2024-04-01T06:01:31.130Z,8.62
2024-04-01T06:02:22.032Z,8.63
2024-04-01T06:03:12.953Z,8.65
2024-04-01T06:04:03.871Z,8.68
2024-04-01T06:04:54.853Z,8.69
2024-04-01T06:05:45.779Z,8.69
2024-04-01T06:06:36.706Z,8.71
2024-04-01T06:07:27.620Z,8.72
2024-04-01T06:08:18.546Z,8.72
2024-04-01T06:09:10.517Z,8.71
2024-04-01T06:10:00.219Z,8.72
2024-04-01T06:10:51.102Z,8.73
2024-04-01T06:11:42.008Z,8.72
2024-04-01T06:12:32.943Z,8.72
2024-04-01T06:13:23.868Z,8.69
2024-04-01T06:14:14.802Z,8.69
2024-04-01T06:15:05.697Z,8.65
2024-04-01T06:15:56.617Z,8.66
2024-04-01T06:16:47.532Z,8.65
2024-04-01T06:17:38.467Z,8.65
2024-04-01T06:18:29.372Z,8.66
2024-04-01T06:19:20.284Z,8.66
2024-04-01T06:20:11.198Z,8.68
2024-04-01T06:21:02.102Z,8.68
2024-04-01T06:21:53.002Z,8.71
2024-04-01T06:22:43.920Z,8.72
2024-04-01T06:23:34.819Z,8.75
2024-04-01T06:24:25.735Z,8.75
2024-04-01T06:25:16.640Z,8.78
2024-04-01T06:26:07.557Z,8.76
2024-04-01T06:26:58.529Z,8.81
2024-04-01T06:27:49.377Z,8.83
2024-04-01T06:28:40.276Z,8.86
2024-04-01T06:29:31.189Z,8.86
2024-04-01T06:30:22.083Z,8.87
2024-04-01T06:31:12.996Z,8.87
2024-04-01T06:32:03.945Z,8.87
2024-04-01T06:32:54.876Z,8.86
2024-04-01T06:33:45.738Z,8.87
2024-04-01T06:34:36.663Z,8.87
2024-04-01T06:35:27.550Z,8.87
2024-04-01T06:36:18.458Z,8.87
2024-04-01T06:37:09.360Z,8.83
2024-04-01T06:38:00.316Z,8.81
2024-04-01T06:38:51.179Z,8.79
2024-04-01T06:39:42.175Z,8.78
2024-04-01T06:40:33.133Z,8.79
2024-04-01T06:41:24.056Z,8.79
2024-04-01T06:42:14.961Z,8.79
2024-04-01T06:43:05.959Z,8.79
2024-04-01T06:43:56.848Z,8.81
2024-04-01T06:44:47.828Z,8.81
2024-04-01T06:45:38.756Z,8.83
2024-04-01T06:46:29.721Z,8.83
2024-04-01T06:47:20.634Z,8.83
2024-04-01T06:48:11.607Z,8.84
2024-04-01T06:49:02.528Z,8.83
2024-04-01T06:49:53.500Z,8.79
2024-04-01T06:50:44.431Z,8.78
2024-04-01T06:51:35.392Z,8.78
2024-04-01T06:52:26.294Z,8.78
2024-04-01T06:53:19.230Z,8.76
2024-04-01T06:54:08.175Z,8.75
2024-04-01T06:54:59.174Z,8.76
2024-04-01T06:55:50.076Z,8.76
2024-04-01T06:56:41.055Z,8.76
2024-04-01T06:57:31.948Z,8.78
2024-04-01T06:58:22.943Z,8.79
2024-04-01T06:59:13.844Z,8.79
2024-04-01T07:00:04.844Z,8.81
2024-04-01T07:00:55.751Z,8.83
2024-04-01T07:01:46.727Z,8.84
2024-04-01T07:02:37.641Z,8.84
2024-04-01T07:03:28.631Z,8.86
2024-04-01T07:04:19.514Z,8.86
2024-04-01T07:05:10.536Z,8.86
2024-04-01T07:06:01.463Z,8.86
2024-04-01T07:06:52.387Z,8.84
2024-04-01T07:07:43.293Z,8.83
2024-04-01T07:08:34.280Z,8.84
2024-04-01T07:09:25.186Z,8.84
2024-04-01T07:10:20.922Z,8.83
2024-04-01T07:11:07.011Z,8.86
2024-04-01T07:11:57.958Z,8.84
2024-04-01T07:12:48.866Z,8.86
2024-04-01T07:13:39.849Z,8.88
2024-04-01T07:14:30.758Z,8.88
2024-04-01T07:15:21.734Z,8.90
2024-04-01T07:16:12.692Z,8.88
2024-04-01T07:17:03.628Z,8.88
2024-04-01T07:17:54.548Z,8.88
2024-04-01T07:18:45.516Z,8.88
2024-04-01T07:19:36.476Z,8.90
2024-04-01T07:20:27.463Z,8.93
2024-04-01T07:21:18.336Z,8.94
2024-04-01T07:22:09.303Z,8.94
2024-04-01T07:23:00.210Z,8.96
2024-04-01T07:23:51.183Z,8.99
2024-04-01T07:24:42.084Z,8.99
2024-04-01T07:25:33.091Z,9.01
2024-04-01T07:26:23.994Z,9.02
2024-04-01T07:27:14.961Z,9.04
2024-04-01T07:28:05.882Z,9.02
2024-04-01T07:28:56.859Z,9.02
2024-04-01T07:29:47.761Z,9.02
2024-04-01T07:30:38.739Z,9.04
2024-04-01T07:31:29.662Z,9.04
2024-04-01T07:32:20.640Z,9.06
2024-04-01T07:33:11.548Z,9.06
2024-04-01T07:34:02.522Z,9.09
2024-04-01T07:34:53.419Z,9.09
2024-04-01T07:35:44.407Z,9.10
2024-04-01T07:36:35.328Z,9.12
2024-04-01T07:37:26.297Z,9.13
2024-04-01T07:38:17.214Z,9.13
2024-04-01T07:39:08.188Z,9.13
2024-04-01T07:39:59.102Z,9.15
2024-04-01T07:40:50.098Z,9.16
2024-04-01T07:41:41.016Z,9.20
2024-04-01T07:42:31.962Z,9.18
2024-04-01T07:43:22.867Z,9.21
2024-04-01T07:44:13.854Z,9.23
2024-04-01T07:45:04.759Z,9.24
2024-04-01T07:45:57.402Z,9.23
2024-04-01T07:46:46.491Z,9.24
2024-04-01T07:47:37.427Z,9.24
2024-04-01T07:48:28.330Z,9.24
2024-04-01T07:49:19.327Z,9.24
2024-04-01T07:50:10.216Z,9.25
2024-04-01T07:51:01.204Z,9.27
2024-04-01T07:51:52.115Z,9.27
2024-04-01T07:52:43.093Z,9.27
2024-04-01T07:53:33.997Z,9.27
2024-04-01T07:54:24.990Z,9.28
2024-04-01T07:55:15.886Z,9.30
2024-04-01T07:56:06.817Z,9.31
2024-04-01T07:56:57.713Z,9.30
2024-04-01T07:57:48.673Z,9.30
2024-04-01T07:58:39.597Z,9.31
2024-04-01T07:59:30.563Z,9.32
2024-04-01T08:00:21.463Z,9.35
2024-04-01T08:01:12.457Z,9.38
2024-04-01T08:02:03.364Z,9.38
2024-04-01T08:02:54.334Z,9.40
2024-04-01T08:03:45.240Z,9.42
2024-04-01T08:04:36.279Z,9.42
2024-04-01T08:05:27.142Z,9.43
2024-04-01T08:06:18.104Z,9.46
2024-04-01T08:07:09.009Z,9.46
2024-04-01T08:07:59.994Z,9.46
2024-04-01T08:08:50.899Z,9.48
2024-04-01T08:09:41.893Z,9.49
2024-04-01T08:10:32.807Z,9.49
2024-04-01T08:11:23.789Z,9.50
2024-04-01T08:12:14.707Z,9.50
2024-04-01T08:13:05.671Z,9.52
2024-04-01T08:13:56.596Z,9.50
2024-04-01T08:14:47.563Z,9.52
2024-04-01T08:15:38.488Z,9.56
2024-04-01T08:16:29.459Z,9.56
2024-04-01T08:17:20.375Z,9.53
2024-04-01T08:18:11.335Z,9.53
2024-04-01T08:19:02.259Z,9.52
2024-04-01T08:19:53.223Z,9.52
2024-04-01T08:20:44.152Z,9.53
2024-04-01T08:21:35.120Z,9.52
2024-04-01T08:22:26.048Z,9.52
2024-04-01T08:23:16.998Z,9.52
2024-04-01T08:24:07.913Z,9.52
2024-04-01T08:24:58.902Z,9.53
2024-04-01T08:25:49.818Z,9.56
2024-04-01T08:26:40.794Z,9.53
2024-04-01T08:27:31.689Z,9.56
2024-04-01T08:28:22.670Z,9.57
2024-04-01T08:29:13.578Z,9.57
2024-04-01T08:30:04.562Z,9.60
2024-04-01T08:30:55.470Z,9.58
2024-04-01T08:31:46.457Z,9.57
2024-04-01T08:32:37.368Z,9.60
2024-04-01T08:33:28.340Z,9.58
2024-04-01T08:34:19.263Z,9.58
2024-04-01T08:35:10.235Z,9.61
2024-04-01T08:36:01.149Z,9.60
2024-04-01T08:36:52.159Z,9.60
2024-04-01T08:37:43.067Z,9.58
2024-04-01T08:38:34.006Z,9.58
2024-04-01T08:39:24.901Z,9.60
2024-04-01T08:40:15.902Z,9.60
2024-04-01T08:41:06.808Z,9.60
2024-04-01T08:41:57.831Z,9.61
2024-04-01T08:42:48.744Z,9.61
2024-04-01T08:43:39.691Z,9.60
2024-04-01T08:44:30.580Z,9.60
2024-04-01T08:45:21.567Z,9.60
2024-04-01T08:46:12.520Z,9.61
2024-04-01T08:47:03.492Z,9.60
2024-04-01T08:47:54.396Z,9.61
2024-04-01T08:48:45.354Z,9.60
2024-04-01T08:49:36.316Z,9.60
2024-04-01T08:50:29.510Z,9.58
2024-04-01T08:51:17.905Z,9.60
2024-04-01T08:52:08.848Z,9.60
2024-04-01T08:52:59.778Z,9.58
2024-04-01T08:53:50.713Z,9.58
2024-04-01T08:54:41.649Z,9.60
2024-04-01T08:55:32.667Z,9.60
2024-04-01T08:56:23.531Z,9.60
2024-04-01T08:57:14.538Z,9.61
2024-04-01T08:58:05.453Z,9.61
2024-04-01T08:58:56.498Z,9.63
2024-04-01T08:59:47.398Z,9.63
2024-04-01T09:00:38.374Z,9.63
2024-04-01T09:01:29.284Z,9.63
2024-04-01T09:02:22.045Z,9.63
2024-04-01T09:03:10.922Z,9.67
2024-04-01T09:04:01.841Z,9.67
2024-04-01T09:04:52.752Z,9.68
2024-04-01T09:05:43.730Z,9.68
2024-04-01T09:06:34.628Z,9.71
2024-04-01T09:07:25.544Z,9.73
2024-04-01T09:08:16.465Z,9.73
2024-04-01T09:09:07.404Z,9.75
2024-04-01T09:09:58.305Z,9.76
2024-04-01T09:10:49.294Z,9.75
2024-04-01T09:11:40.189Z,9.76
2024-04-01T09:12:31.231Z,9.76
2024-04-01T09:13:22.122Z,9.76
2024-04-01T09:14:14.125Z,9.76
2024-04-01T09:15:03.843Z,9.76
2024-04-01T09:15:54.768Z,9.75
2024-04-01T09:16:45.668Z,9.75
2024-04-01T09:17:36.576Z,9.75
2024-04-01T09:18:27.478Z,9.75
2024-04-01T09:19:18.430Z,9.75
2024-04-01T09:20:09.339Z,9.73
2024-04-01T09:21:00.326Z,9.75
2024-04-01T09:21:51.303Z,9.73
2024-04-01T09:22:42.229Z,9.71
2024-04-01T09:23:33.123Z,9.70
2024-04-01T09:24:24.102Z,9.71
2024-04-01T09:25:15.016Z,9.70
2024-04-01T09:26:05.991Z,9.68
2024-04-01T09:26:56.904Z,9.66
2024-04-01T09:27:47.892Z,9.66
2024-04-01T09:28:38.829Z,9.66
2024-04-01T09:29:29.772Z,9.64
2024-04-01T09:30:20.705Z,9.64
2024-04-01T09:31:11.655Z,9.64
2024-04-01T09:32:02.578Z,9.66
2024-04-01T09:32:53.585Z,9.64
2024-04-01T09:33:44.502Z,9.67
2024-04-01T09:34:35.443Z,9.70
2024-04-01T09:35:26.344Z,9.70
2024-04-01T09:36:17.332Z,9.71
2024-04-01T09:37:08.258Z,9.73
2024-04-01T09:37:59.238Z,9.75
2024-04-01T09:38:50.151Z,9.78
2024-04-01T09:39:41.106Z,9.79
2024-04-01T09:40:32.029Z,9.81
2024-04-01T09:41:22.993Z,9.81
2024-04-01T09:42:13.920Z,9.85
2024-04-01T09:43:04.893Z,9.85
2024-04-01T09:43:55.794Z,9.88
2024-04-01T09:44:46.772Z,9.89
2024-04-01T09:45:37.695Z,9.93
2024-04-01T09:46:28.662Z,9.93
2024-04-01T09:47:19.601Z,9.94
2024-04-01T09:48:10.564Z,9.96
2024-04-01T09:49:01.510Z,10.00
2024-04-01T09:49:52.442Z,10.00
2024-04-01T09:50:43.360Z,10.01
2024-04-01T09:51:34.330Z,10.03
2024-04-01T09:52:25.261Z,10.04
2024-04-01T09:53:16.217Z,10.04
2024-04-01T09:54:07.131Z,10.07
2024-04-01T09:54:58.108Z,10.06
2024-04-01T09:55:49.031Z,10.07
2024-04-01T09:56:40.012Z,10.10
2024-04-01T09:57:36.626Z,10.10
2024-04-01T09:58:22.923Z,10.10
2024-04-01T09:59:12.605Z,10.12
2024-04-01T10:00:03.583Z,10.12
2024-04-01T10:00:54.503Z,10.12
2024-04-01T10:01:45.479Z,10.15
2024-04-01T10:02:36.389Z,10.15
2024-04-01T10:03:27.357Z,10.15
2024-04-01T10:04:18.268Z,10.15
2024-04-01T10:05:09.251Z,10.17
2024-04-01T10:06:00.182Z,10.17
2024-04-01T10:06:51.131Z,10.17
2024-04-01T10:07:42.119Z,10.18
2024-04-01T10:08:33.013Z,10.17
2024-04-01T10:09:23.935Z,10.18
2024-04-01T10:10:14.925Z,10.18
2024-04-01T10:11:05.831Z,10.17
2024-04-01T10:11:56.842Z,10.17
2024-04-01T10:12:47.761Z,10.18
2024-04-01T10:13:38.842Z,10.19
2024-04-01T10:14:29.703Z,10.21
2024-04-01T10:15:20.689Z,10.22
2024-04-01T10:16:11.597Z,10.22
2024-04-01T10:17:02.597Z,10.24
2024-04-01T10:17:53.521Z,10.24
2024-04-01T10:18:44.464Z,10.24
2024-04-01T10:19:35.417Z,10.22
2024-04-01T10:20:26.348Z,10.22
2024-04-01T10:21:17.258Z,10.22
2024-04-01T10:22:08.276Z,10.22
2024-04-01T10:22:59.221Z,10.22
2024-04-01T10:23:50.128Z,10.24
2024-04-01T10:24:41.044Z,10.22
2024-04-01T10:25:32.016Z,10.21
2024-04-01T10:26:22.931Z,10.21
2024-04-01T10:27:13.939Z,10.21
2024-04-01T10:28:04.887Z,10.18
2024-04-01T10:28:55.836Z,10.17
2024-04-01T10:29:46.709Z,10.18
2024-04-01T10:30:37.693Z,10.15
2024-04-01T10:31:28.603Z,10.15
2024-04-01T10:32:19.606Z,10.15
2024-04-01T10:33:10.522Z,10.14
2024-04-01T10:34:01.464Z,10.12
2024-04-01T10:35:04.270Z,10.10
2024-04-01T10:35:44.303Z,10.09
2024-04-01T10:36:34.053Z,10.10
2024-04-01T10:37:24.975Z,10.07
2024-04-01T10:38:15.926Z,10.09
2024-04-01T10:39:06.844Z,10.09
2024-04-01T10:39:57.824Z,10.09
2024-04-01T10:40:48.741Z,10.10
2024-04-01T10:41:42.120Z,10.07
2024-04-01T10:42:33.550Z,10.07
2024-04-01T10:43:21.597Z,10.06
2024-04-01T10:44:12.540Z,10.07
2024-04-01T10:45:03.494Z,10.07
2024-04-01T10:45:54.423Z,10.07
2024-04-01T10:46:45.385Z,10.09
2024-04-01T10:47:36.315Z,10.09
2024-04-01T10:48:27.269Z,10.10
2024-04-01T10:49:18.186Z,10.10
2024-04-01T10:50:09.165Z,10.14
2024-04-01T10:51:00.071Z,10.18
2024-04-01T10:51:51.049Z,10.17
2024-04-01T10:52:42.013Z,10.19
2024-04-01T10:53:32.940Z,10.21
2024-04-01T10:54:23.865Z,10.22
2024-04-01T10:55:14.827Z,10.25
2024-04-01T10:56:05.747Z,10.25
2024-04-01T10:56:56.714Z,10.26
2024-04-01T10:57:47.644Z,10.25
2024-04-01T10:58:38.620Z,10.26
2024-04-01T10:59:29.529Z,10.28
2024-04-01T11:00:20.494Z,10.26
2024-04-01T11:01:11.429Z,10.28
2024-04-01T11:02:02.381Z,10.28
2024-04-01T11:02:53.309Z,10.30
2024-04-01T11:03:44.271Z,10.30
2024-04-01T11:04:35.186Z,10.34
2024-04-01T11:05:26.161Z,10.36
2024-04-01T11:06:17.075Z,10.39
2024-04-01T11:07:08.051Z,10.37
2024-04-01T11:07:59.019Z,10.40
2024-04-01T11:08:49.955Z,10.43
2024-04-01T11:09:40.856Z,10.44
2024-04-01T11:10:31.829Z,10.51
2024-04-01T11:11:32.695Z,10.52
2024-04-01T11:12:14.652Z,10.55
2024-04-01T11:13:04.445Z,10.58
2024-04-01T11:13:55.363Z,10.62